sensor_id;sensor_type;location;lat;lon;timestamp;pressure;altitude;pressure_sealevel;temperature;humidity
60371;BME280;48550;40.588;49.684;2022-12-10T00:01:52;102860.53;;;6.30;100.00
60371;BME280;48550;40.588;49.684;2022-12-10T00:04:19;102854.97;;;6.41;100.00
60371;BME280;48550;40.588;49.684;2022-12-10T00:06:45;102853.06;;;6.51;100.00
60371;BME280;48550;40.588;49.684;2022-12-10T00:09:13;102849.63;;;6.59;100.00
60371;BME280;48550;40.588;49.684;2022-12-10T00:11:40;102852.50;;;6.65;100.00
60371;BME280;48550;40.588;49.684;2022-12-10T00:14:06;102849.63;;;6.77;100.00
60371;BME280;48550;40.588;49.684;2022-12-10T00:16:33;102847.84;;;6.67;100.00
60371;BME280;48550;40.588;49.684;2022-12-10T00:18:59;102846.31;;;6.83;100.00
60371;BME280;48550;40.588;49.684;2022-12-10T00:21:30;102833.91;;;6.74;100.00
60371;BME280;48550;40.588;49.684;2022-12-10T00:23:57;102838.78;;;6.78;100.00
60371;BME280;48550;40.588;49.684;2022-12-10T00:26:31;102837.78;;;6.79;100.00
60371;BME280;48550;40.588;49.684;2022-12-10T00:29:00;102827.16;;;6.87;100.00
60371;BME280;48550;40.588;49.684;2022-12-10T00:31:31;102825.66;;;6.85;100.00
60371;BME280;48550;40.588;49.684;2022-12-10T00:33:59;102830.63;;;6.80;100.00
60371;BME280;48550;40.588;49.684;2022-12-10T00:36:31;102824.38;;;6.53;100.00
60371;BME280;48550;40.588;49.684;2022-12-10T00:38:57;102830.41;;;6.55;100.00
60371;BME280;48550;40.588;49.684;2022-12-10T00:41:23;102825.06;;;6.73;100.00
60371;BME280;48550;40.588;49.684;2022-12-10T00:43:49;102816.28;;;6.81;100.00
60371;BME280;48550;40.588;49.684;2022-12-10T00:46:16;102816.59;;;6.78;100.00
60371;BME280;48550;40.588;49.684;2022-12-10T00:48:42;102813.13;;;6.85;100.00
60371;BME280;48550;40.588;49.684;2022-12-10T00:51:15;102821.09;;;6.77;100.00
60371;BME280;48550;40.588;49.684;2022-12-10T00:53:41;102824.38;;;6.71;100.00
60371;BME280;48550;40.588;49.684;2022-12-10T00:56:12;102814.91;;;6.77;100.00
60371;BME280;48550;40.588;49.684;2022-12-10T00:58:39;102807.97;;;6.84;100.00
60371;BME280;48550;40.588;49.684;2022-12-10T01:01:15;102808.63;;;6.86;100.00
60371;BME280;48550;40.588;49.684;2022-12-10T01:03:41;102803.50;;;6.92;100.00
60371;BME280;48550;40.588;49.684;2022-12-10T01:06:27;102817.66;;;6.85;100.00
60371;BME280;48550;40.588;49.684;2022-12-10T01:08:56;102817.75;;;6.75;100.00
60371;BME280;48550;40.588;49.684;2022-12-10T01:11:25;102820.16;;;6.68;100.00
60371;BME280;48550;40.588;49.684;2022-12-10T01:13:52;102820.31;;;6.85;100.00
60371;BME280;48550;40.588;49.684;2022-12-10T01:16:19;102818.91;;;6.98;100.00
60371;BME280;48550;40.588;49.684;2022-12-10T01:18:46;102808.75;;;7.02;100.00
60371;BME280;48550;40.588;49.684;2022-12-10T01:21:14;102819.94;;;7.06;100.00
60371;BME280;48550;40.588;49.684;2022-12-10T01:23:42;102814.59;;;7.06;100.00
60371;BME280;48550;40.588;49.684;2022-12-10T01:26:10;102817.31;;;7.14;100.00
60371;BME280;48550;40.588;49.684;2022-12-10T01:28:37;102820.31;;;7.11;100.00
60371;BME280;48550;40.588;49.684;2022-12-10T01:31:12;102813.50;;;7.16;100.00
60371;BME280;48550;40.588;49.684;2022-12-10T01:33:39;102811.34;;;7.20;100.00
60371;BME280;48550;40.588;49.684;2022-12-10T01:36:14;102819.69;;;7.25;100.00
60371;BME280;48550;40.588;49.684;2022-12-10T01:38:41;102803.81;;;7.15;100.00
60371;BME280;48550;40.588;49.684;2022-12-10T01:41:09;102814.06;;;7.02;100.00
60371;BME280;48550;40.588;49.684;2022-12-10T01:43:54;102819.25;;;6.78;100.00
60371;BME280;48550;40.588;49.684;2022-12-10T01:46:21;102808.59;;;6.78;100.00
60371;BME280;48550;40.588;49.684;2022-12-10T01:48:49;102804.34;;;6.93;100.00
60371;BME280;48550;40.588;49.684;2022-12-10T01:51:15;102801.03;;;6.99;100.00
60371;BME280;48550;40.588;49.684;2022-12-10T01:53:42;102802.41;;;7.03;100.00
60371;BME280;48550;40.588;49.684;2022-12-10T01:56:12;102806.06;;;7.02;100.00
60371;BME280;48550;40.588;49.684;2022-12-10T01:58:38;102800.94;;;6.83;100.00
60371;BME280;48550;40.588;49.684;2022-12-10T02:01:11;102795.97;;;6.88;100.00
60371;BME280;48550;40.588;49.684;2022-12-10T02:03:54;102794.06;;;7.06;100.00
60371;BME280;48550;40.588;49.684;2022-12-10T02:06:33;102798.91;;;7.03;100.00
60371;BME280;48550;40.588;49.684;2022-12-10T02:11:42;102801.88;;;6.99;100.00
60371;BME280;48550;40.588;49.684;2022-12-10T02:19:55;102806.00;;;7.20;100.00
60371;BME280;48550;40.588;49.684;2022-12-10T02:22:24;102796.31;;;7.19;100.00
60371;BME280;48550;40.588;49.684;2022-12-10T02:24:52;102808.31;;;7.15;100.00
60371;BME280;48550;40.588;49.684;2022-12-10T02:28:17;102808.91;;;7.00;100.00
60371;BME280;48550;40.588;49.684;2022-12-10T02:30:21;102806.09;;;7.10;100.00
60371;BME280;48550;40.588;49.684;2022-12-10T02:32:48;102810.81;;;7.16;100.00
60371;BME280;48550;40.588;49.684;2022-12-10T02:35:20;102805.16;;;7.19;100.00
60371;BME280;48550;40.588;49.684;2022-12-10T02:38:11;102811.13;;;7.13;100.00
60371;BME280;48550;40.588;49.684;2022-12-10T02:40:39;102804.19;;;7.28;100.00
60371;BME280;48550;40.588;49.684;2022-12-10T02:43:09;102808.50;;;7.21;100.00
60371;BME280;48550;40.588;49.684;2022-12-10T02:45:37;102807.19;;;7.25;100.00
60371;BME280;48550;40.588;49.684;2022-12-10T02:48:04;102807.19;;;7.25;100.00
60371;BME280;48550;40.588;49.684;2022-12-10T02:50:30;102806.03;;;7.28;100.00
60371;BME280;48550;40.588;49.684;2022-12-10T02:52:55;102806.88;;;7.28;100.00
60371;BME280;48550;40.588;49.684;2022-12-10T02:55:21;102814.53;;;7.23;100.00
60371;BME280;48550;40.588;49.684;2022-12-10T03:00:33;102815.44;;;7.40;100.00
60371;BME280;48550;40.588;49.684;2022-12-10T03:08:42;102815.69;;;7.21;100.00
60371;BME280;48550;40.588;49.684;2022-12-10T03:11:16;102824.88;;;6.92;100.00
60371;BME280;48550;40.588;49.684;2022-12-10T03:13:51;102812.75;;;7.06;100.00
60371;BME280;48550;40.588;49.684;2022-12-10T03:16:20;102808.47;;;7.13;100.00
60371;BME280;48550;40.588;49.684;2022-12-10T03:18:51;102813.41;;;7.00;100.00
60371;BME280;48550;40.588;49.684;2022-12-10T03:21:18;102817.50;;;6.86;100.00
60371;BME280;48550;40.588;49.684;2022-12-10T03:23:46;102815.72;;;6.95;100.00
60371;BME280;48550;40.588;49.684;2022-12-10T03:26:13;102813.09;;;7.03;100.00
60371;BME280;48550;40.588;49.684;2022-12-10T03:28:46;102813.25;;;7.01;100.00
60371;BME280;48550;40.588;49.684;2022-12-10T03:31:15;102816.69;;;6.94;100.00
60371;BME280;48550;40.588;49.684;2022-12-10T03:33:43;102814.47;;;7.15;100.00
60371;BME280;48550;40.588;49.684;2022-12-10T03:36:09;102812.22;;;7.28;100.00
60371;BME280;48550;40.588;49.684;2022-12-10T03:38:36;102814.03;;;7.28;100.00
60371;BME280;48550;40.588;49.684;2022-12-10T03:41:03;102812.06;;;7.30;100.00
60371;BME280;48550;40.588;49.684;2022-12-10T03:43:28;102811.94;;;7.06;100.00
60371;BME280;48550;40.588;49.684;2022-12-10T03:45:54;102810.97;;;7.15;100.00
60371;BME280;48550;40.588;49.684;2022-12-10T03:48:20;102814.03;;;7.28;100.00
60371;BME280;48550;40.588;49.684;2022-12-10T03:50:45;102820.31;;;7.45;100.00
60371;BME280;48550;40.588;49.684;2022-12-10T03:53:12;102820.16;;;7.46;100.00
60371;BME280;48550;40.588;49.684;2022-12-10T03:55:38;102815.69;;;7.55;100.00
60371;BME280;48550;40.588;49.684;2022-12-10T03:58:04;102823.69;;;7.47;100.00
60371;BME280;48550;40.588;49.684;2022-12-10T04:00:29;102817.72;;;7.61;100.00
60371;BME280;48550;40.588;49.684;2022-12-10T04:02:55;102811.06;;;7.65;100.00
60371;BME280;48550;40.588;49.684;2022-12-10T04:05:21;102820.91;;;7.64;100.00
60371;BME280;48550;40.588;49.684;2022-12-10T04:07:47;102814.72;;;7.64;100.00
60371;BME280;48550;40.588;49.684;2022-12-10T04:10:12;102820.75;;;7.74;100.00
60371;BME280;48550;40.588;49.684;2022-12-10T04:12:38;102817.03;;;7.59;100.00
60371;BME280;48550;40.588;49.684;2022-12-10T04:15:04;102818.66;;;7.44;100.00
60371;BME280;48550;40.588;49.684;2022-12-10T04:17:49;102830.56;;;7.57;100.00
60371;BME280;48550;40.588;49.684;2022-12-10T04:20:14;102829.94;;;7.72;100.00
60371;BME280;48550;40.588;49.684;2022-12-10T04:22:59;102829.97;;;7.80;100.00
60371;BME280;48550;40.588;49.684;2022-12-10T04:25:42;102823.81;;;7.95;100.00
60371;BME280;48550;40.588;49.684;2022-12-10T04:28:26;102830.50;;;8.00;100.00
60371;BME280;48550;40.588;49.684;2022-12-10T04:30:52;102827.34;;;8.04;100.00
60371;BME280;48550;40.588;49.684;2022-12-10T04:33:18;102831.50;;;7.90;100.00
60371;BME280;48550;40.588;49.684;2022-12-10T04:35:44;102831.84;;;7.95;100.00
60371;BME280;48550;40.588;49.684;2022-12-10T04:38:09;102830.84;;;8.05;100.00
60371;BME280;48550;40.588;49.684;2022-12-10T04:40:35;102821.00;;;8.13;100.00
60371;BME280;48550;40.588;49.684;2022-12-10T04:43:01;102829.53;;;8.17;100.00
60371;BME280;48550;40.588;49.684;2022-12-10T04:45:27;102828.88;;;8.15;100.00
60371;BME280;48550;40.588;49.684;2022-12-10T04:47:52;102824.69;;;8.12;100.00
60371;BME280;48550;40.588;49.684;2022-12-10T04:50:18;102823.00;;;8.11;100.00
60371;BME280;48550;40.588;49.684;2022-12-10T04:52:43;102821.38;;;8.18;100.00
60371;BME280;48550;40.588;49.684;2022-12-10T04:55:09;102827.69;;;8.01;100.00
60371;BME280;48550;40.588;49.684;2022-12-10T04:57:35;102821.31;;;7.94;100.00
60371;BME280;48550;40.588;49.684;2022-12-10T05:00:01;102822.34;;;8.09;100.00
60371;BME280;48550;40.588;49.684;2022-12-10T05:02:26;102823.84;;;8.12;100.00
60371;BME280;48550;40.588;49.684;2022-12-10T05:04:52;102820.53;;;8.18;100.00
60371;BME280;48550;40.588;49.684;2022-12-10T05:07:18;102829.06;;;8.21;100.00
60371;BME280;48550;40.588;49.684;2022-12-10T05:09:43;102824.22;;;8.25;100.00
60371;BME280;48550;40.588;49.684;2022-12-10T05:12:09;102828.25;;;8.29;100.00
60371;BME280;48550;40.588;49.684;2022-12-10T05:14:34;102825.56;;;8.29;100.00
60371;BME280;48550;40.588;49.684;2022-12-10T05:17:00;102830.63;;;8.56;100.00
60371;BME280;48550;40.588;49.684;2022-12-10T05:19:26;102827.28;;;8.71;100.00
60371;BME280;48550;40.588;49.684;2022-12-10T05:21:51;102825.41;;;8.79;100.00
60371;BME280;48550;40.588;49.684;2022-12-10T05:24:36;102826.41;;;8.78;100.00
60371;BME280;48550;40.588;49.684;2022-12-10T05:27:02;102821.41;;;9.00;100.00
60371;BME280;48550;40.588;49.684;2022-12-10T05:29:28;102833.94;;;9.07;100.00
60371;BME280;48550;40.588;49.684;2022-12-10T05:31:53;102834.09;;;8.89;100.00
60371;BME280;48550;40.588;49.684;2022-12-10T05:34:19;102832.78;;;9.02;100.00
60371;BME280;48550;40.588;49.684;2022-12-10T05:36:45;102829.56;;;9.06;100.00
60371;BME280;48550;40.588;49.684;2022-12-10T05:39:11;102838.63;;;9.05;100.00
60371;BME280;48550;40.588;49.684;2022-12-10T05:41:38;102833.59;;;9.02;100.00
60371;BME280;48550;40.588;49.684;2022-12-10T05:44:05;102835.44;;;9.10;100.00
60371;BME280;48550;40.588;49.684;2022-12-10T05:46:32;102836.59;;;9.15;100.00
60371;BME280;48550;40.588;49.684;2022-12-10T05:49:00;102832.59;;;9.11;100.00
60371;BME280;48550;40.588;49.684;2022-12-10T05:51:28;102825.41;;;9.04;100.00
60371;BME280;48550;40.588;49.684;2022-12-10T05:53:56;102837.75;;;9.21;100.00
60371;BME280;48550;40.588;49.684;2022-12-10T05:56:23;102839.59;;;9.20;100.00
60371;BME280;48550;40.588;49.684;2022-12-10T05:58:51;102838.59;;;9.13;100.00
60371;BME280;48550;40.588;49.684;2022-12-10T06:01:19;102845.13;;;9.11;100.00
60371;BME280;48550;40.588;49.684;2022-12-10T06:03:46;102833.59;;;9.10;100.00
60371;BME280;48550;40.588;49.684;2022-12-10T06:06:12;102848.16;;;9.08;100.00
60371;BME280;48550;40.588;49.684;2022-12-10T06:08:39;102843.16;;;8.97;100.00
60371;BME280;48550;40.588;49.684;2022-12-10T06:11:07;102844.31;;;9.02;100.00
60371;BME280;48550;40.588;49.684;2022-12-10T06:13:34;102842.66;;;9.01;100.00
60371;BME280;48550;40.588;49.684;2022-12-10T06:16:05;102848.66;;;9.03;100.00
60371;BME280;48550;40.588;49.684;2022-12-10T06:18:30;102848.31;;;9.06;100.00
60371;BME280;48550;40.588;49.684;2022-12-10T06:20:56;102842.31;;;9.04;100.00
60371;BME280;48550;40.588;49.684;2022-12-10T06:23:22;102839.28;;;8.91;100.00
60371;BME280;48550;40.588;49.684;2022-12-10T06:25:48;102842.16;;;8.81;100.00
60371;BME280;48550;40.588;49.684;2022-12-10T06:28:14;102842.31;;;8.88;100.00
60371;BME280;48550;40.588;49.684;2022-12-10T06:30:40;102836.78;;;8.81;100.00
60371;BME280;48550;40.588;49.684;2022-12-10T06:33:05;102838.63;;;9.05;100.00
60371;BME280;48550;40.588;49.684;2022-12-10T06:35:31;102839.28;;;9.54;100.00
60371;BME280;48550;40.588;49.684;2022-12-10T06:37:57;102835.81;;;9.46;100.00
60371;BME280;48550;40.588;49.684;2022-12-10T06:40:22;102827.53;;;9.24;100.00
60371;BME280;48550;40.588;49.684;2022-12-10T06:42:51;102843.75;;;9.31;100.00
60371;BME280;48550;40.588;49.684;2022-12-10T06:45:16;102830.78;;;8.96;100.00
60371;BME280;48550;40.588;49.684;2022-12-10T06:47:42;102828.34;;;9.25;100.00
60371;BME280;48550;40.588;49.684;2022-12-10T06:50:08;102831.50;;;9.37;100.00
60371;BME280;48550;40.588;49.684;2022-12-10T06:52:34;102831.19;;;9.23;100.00
60371;BME280;48550;40.588;49.684;2022-12-10T06:55:00;102828.91;;;9.04;100.00
60371;BME280;48550;40.588;49.684;2022-12-10T06:57:26;102831.25;;;8.91;100.00
60371;BME280;48550;40.588;49.684;2022-12-10T06:59:51;102822.75;;;8.96;100.00
60371;BME280;48550;40.588;49.684;2022-12-10T07:02:17;102820.88;;;9.04;100.00
60371;BME280;48550;40.588;49.684;2022-12-10T07:04:43;102825.22;;;9.13;100.00
60371;BME280;48550;40.588;49.684;2022-12-10T07:07:09;102817.63;;;9.25;100.00
60371;BME280;48550;40.588;49.684;2022-12-10T07:09:34;102819.47;;;9.24;100.00
60371;BME280;48550;40.588;49.684;2022-12-10T07:12:00;102815.59;;;9.35;100.00
60371;BME280;48550;40.588;49.684;2022-12-10T07:14:26;102817.44;;;9.35;100.00
60371;BME280;48550;40.588;49.684;2022-12-10T07:16:52;102801.94;;;9.53;100.00
60371;BME280;48550;40.588;49.684;2022-12-10T07:19:17;102801.81;;;9.46;100.00
60371;BME280;48550;40.588;49.684;2022-12-10T07:21:43;102797.63;;;9.44;100.00
60371;BME280;48550;40.588;49.684;2022-12-10T07:24:14;102797.84;;;9.34;100.00
60371;BME280;48550;40.588;49.684;2022-12-10T07:26:42;102800.66;;;9.41;100.00
60371;BME280;48550;40.588;49.684;2022-12-10T07:29:14;102790.81;;;9.64;100.00
60371;BME280;48550;40.588;49.684;2022-12-10T07:31:40;102789.97;;;9.72;100.00
60371;BME280;48550;40.588;49.684;2022-12-10T07:34:06;102790.34;;;9.61;100.00
60371;BME280;48550;40.588;49.684;2022-12-10T07:36:32;102783.13;;;9.61;100.00
60371;BME280;48550;40.588;49.684;2022-12-10T07:38:58;102784.91;;;9.77;100.00
60371;BME280;48550;40.588;49.684;2022-12-10T07:41:24;102782.59;;;9.66;100.00
60371;BME280;48550;40.588;49.684;2022-12-10T07:43:51;102780.66;;;9.51;100.00
60371;BME280;48550;40.588;49.684;2022-12-10T07:46:22;102772.81;;;9.50;100.00
60371;BME280;48550;40.588;49.684;2022-12-10T07:48:49;102768.63;;;9.47;100.00
60371;BME280;48550;40.588;49.684;2022-12-10T07:51:16;102766.00;;;9.39;100.00
60371;BME280;48550;40.588;49.684;2022-12-10T07:53:43;102770.81;;;9.44;100.00
60371;BME280;48550;40.588;49.684;2022-12-10T07:56:09;102758.56;;;9.49;100.00
60371;BME280;48550;40.588;49.684;2022-12-10T07:58:35;102758.44;;;9.43;100.00
60371;BME280;48550;40.588;49.684;2022-12-10T08:01:15;102757.06;;;9.47;100.00
60371;BME280;48550;40.588;49.684;2022-12-10T08:03:41;102745.38;;;9.01;100.00
60371;BME280;48550;40.588;49.684;2022-12-10T08:06:13;102753.81;;;9.29;100.00
60371;BME280;48550;40.588;49.684;2022-12-10T08:08:40;102757.50;;;9.28;100.00
60371;BME280;48550;40.588;49.684;2022-12-10T08:11:07;102748.53;;;9.12;100.00
60371;BME280;48550;40.588;49.684;2022-12-10T08:13:33;102743.56;;;8.93;100.00
60371;BME280;48550;40.588;49.684;2022-12-10T08:16:04;102750.69;;;9.17;100.00
60371;BME280;48550;40.588;49.684;2022-12-10T08:18:30;102747.63;;;9.28;100.00
60371;BME280;48550;40.588;49.684;2022-12-10T08:20:56;102740.97;;;9.16;100.00
60371;BME280;48550;40.588;49.684;2022-12-10T08:23:22;102731.19;;;9.31;100.00
60371;BME280;48550;40.588;49.684;2022-12-10T08:25:48;102736.19;;;9.34;100.00
60371;BME280;48550;40.588;49.684;2022-12-10T08:28:14;102731.81;;;9.41;100.00
60371;BME280;48550;40.588;49.684;2022-12-10T08:30:39;102726.84;;;9.30;100.00
60371;BME280;48550;40.588;49.684;2022-12-10T08:33:06;102730.00;;;9.34;100.00
60371;BME280;48550;40.588;49.684;2022-12-10T08:35:31;102719.34;;;9.26;100.00
60371;BME280;48550;40.588;49.684;2022-12-10T08:37:57;102714.13;;;9.55;100.00
60371;BME280;48550;40.588;49.684;2022-12-10T08:40:23;102718.50;;;9.56;100.00
60371;BME280;48550;40.588;49.684;2022-12-10T08:42:48;102717.09;;;9.37;100.00
60371;BME280;48550;40.588;49.684;2022-12-10T08:45:14;102712.38;;;9.39;100.00
60371;BME280;48550;40.588;49.684;2022-12-10T08:47:40;102707.78;;;9.25;100.00
60371;BME280;48550;40.588;49.684;2022-12-10T08:50:05;102705.22;;;9.32;100.00
60371;BME280;48550;40.588;49.684;2022-12-10T08:52:31;102705.19;;;9.40;100.00
60371;BME280;48550;40.588;49.684;2022-12-10T08:54:57;102694.06;;;9.51;100.00
60371;BME280;48550;40.588;49.684;2022-12-10T08:57:23;102687.44;;;9.62;100.00
60371;BME280;48550;40.588;49.684;2022-12-10T08:59:48;102680.41;;;9.61;100.00
60371;BME280;48550;40.588;49.684;2022-12-10T09:02:14;102677.72;;;9.69;100.00
60371;BME280;48550;40.588;49.684;2022-12-10T09:04:39;102682.28;;;9.83;100.00
60371;BME280;48550;40.588;49.684;2022-12-10T09:07:06;102683.81;;;10.00;100.00
60371;BME280;48550;40.588;49.684;2022-12-10T09:09:32;102674.06;;;9.84;100.00
60371;BME280;48550;40.588;49.684;2022-12-10T09:11:58;102677.03;;;9.90;100.00
60371;BME280;48550;40.588;49.684;2022-12-10T09:14:24;102661.03;;;9.81;100.00
60371;BME280;48550;40.588;49.684;2022-12-10T09:16:50;102663.94;;;9.72;100.00
60371;BME280;48550;40.588;49.684;2022-12-10T09:19:15;102665.97;;;9.93;100.00
60371;BME280;48550;40.588;49.684;2022-12-10T09:21:41;102667.50;;;9.87;100.00
60371;BME280;48550;40.588;49.684;2022-12-10T09:24:07;102667.34;;;9.88;100.00
60371;BME280;48550;40.588;49.684;2022-12-10T09:26:33;102649.44;;;10.18;100.00
60371;BME280;48550;40.588;49.684;2022-12-10T09:28:58;102660.00;;;10.58;100.00
60371;BME280;48550;40.588;49.684;2022-12-10T09:31:25;102659.97;;;10.87;100.00
60371;BME280;48550;40.588;49.684;2022-12-10T09:33:53;102656.16;;;10.96;100.00
60371;BME280;48550;40.588;49.684;2022-12-10T09:36:20;102654.81;;;10.71;100.00
60371;BME280;48550;40.588;49.684;2022-12-10T09:38:47;102652.69;;;10.66;100.00
60371;BME280;48550;40.588;49.684;2022-12-10T09:41:47;102651.75;;;10.59;100.00
60371;BME280;48550;40.588;49.684;2022-12-10T09:47:04;102644.06;;;10.71;100.00
60371;BME280;48550;40.588;49.684;2022-12-10T09:52:17;102640.69;;;10.98;100.00
60371;BME280;48550;40.588;49.684;2022-12-10T09:54:50;102645.84;;;11.14;100.00
60371;BME280;48550;40.588;49.684;2022-12-10T09:57:34;102655.59;;;11.01;100.00
60371;BME280;48550;40.588;49.684;2022-12-10T10:00:25;102652.91;;;11.16;100.00
60371;BME280;48550;40.588;49.684;2022-12-10T10:02:55;102650.44;;;11.35;100.00
60371;BME280;48550;40.588;49.684;2022-12-10T10:05:28;102651.84;;;11.74;100.00
60371;BME280;48550;40.588;49.684;2022-12-10T10:07:58;102645.53;;;11.82;100.00
60371;BME280;48550;40.588;49.684;2022-12-10T10:10:29;102644.69;;;11.81;100.00
60371;BME280;48550;40.588;49.684;2022-12-10T10:13:00;102646.16;;;11.84;100.00
60371;BME280;48550;40.588;49.684;2022-12-10T10:15:35;102643.66;;;11.82;100.00
60371;BME280;48550;40.588;49.684;2022-12-10T10:18:09;102645.13;;;11.63;100.00
60371;BME280;48550;40.588;49.684;2022-12-10T10:20:37;102642.94;;;11.52;100.00
60371;BME280;48550;40.588;49.684;2022-12-10T10:23:03;102640.84;;;11.11;100.00
60371;BME280;48550;40.588;49.684;2022-12-10T10:25:28;102638.63;;;11.00;100.00
60371;BME280;48550;40.588;49.684;2022-12-10T10:27:55;102633.78;;;10.74;100.00
60371;BME280;48550;40.588;49.684;2022-12-10T10:30:22;102639.34;;;10.58;100.00
60371;BME280;48550;40.588;49.684;2022-12-10T10:32:54;102640.91;;;10.53;100.00
60371;BME280;48550;40.588;49.684;2022-12-10T10:35:42;102647.03;;;10.76;100.00
60371;BME280;48550;40.588;49.684;2022-12-10T10:38:16;102648.50;;;10.78;100.00
60371;BME280;48550;40.588;49.684;2022-12-10T10:40:45;102644.34;;;10.76;100.00
60371;BME280;48550;40.588;49.684;2022-12-10T10:43:21;102641.66;;;10.76;100.00
60371;BME280;48550;40.588;49.684;2022-12-10T10:46:20;102645.25;;;10.83;100.00
60371;BME280;48550;40.588;49.684;2022-12-10T10:48:47;102653.13;;;10.70;100.00
60371;BME280;48550;40.588;49.684;2022-12-10T10:53:45;102658.03;;;10.66;100.00
60371;BME280;48550;40.588;49.684;2022-12-10T10:56:13;102652.94;;;10.86;100.00
60371;BME280;48550;40.588;49.684;2022-12-10T10:59:02;102659.63;;;10.61;100.00
60371;BME280;48550;40.588;49.684;2022-12-10T11:01:51;102664.81;;;10.62;100.00
60371;BME280;48550;40.588;49.684;2022-12-10T11:04:27;102655.81;;;10.55;100.00
60371;BME280;48550;40.588;49.684;2022-12-10T11:06:55;102666.25;;;10.35;100.00
60371;BME280;48550;40.588;49.684;2022-12-10T11:09:28;102663.66;;;10.27;100.00
60371;BME280;48550;40.588;49.684;2022-12-10T11:12:02;102670.75;;;10.20;100.00
60371;BME280;48550;40.588;49.684;2022-12-10T11:14:32;102665.22;;;10.22;100.00
60371;BME280;48550;40.588;49.684;2022-12-10T11:22:55;102673.53;;;9.89;100.00
60371;BME280;48550;40.588;49.684;2022-12-10T11:30:46;102675.97;;;9.76;100.00
60371;BME280;48550;40.588;49.684;2022-12-10T11:33:44;102678.97;;;9.81;100.00
60371;BME280;48550;40.588;49.684;2022-12-10T11:36:31;102675.50;;;9.95;100.00
60371;BME280;48550;40.588;49.684;2022-12-10T11:39:24;102677.88;;;9.90;100.00
60371;BME280;48550;40.588;49.684;2022-12-10T11:50:42;102679.28;;;10.24;100.00
60371;BME280;48550;40.588;49.684;2022-12-10T11:53:15;102682.34;;;10.35;100.00
60371;BME280;48550;40.588;49.684;2022-12-10T12:01:22;102692.06;;;10.36;100.00
60371;BME280;48550;40.588;49.684;2022-12-10T12:04:30;102696.88;;;10.26;100.00
60371;BME280;48550;40.588;49.684;2022-12-10T12:10:01;102692.88;;;10.22;100.00
60371;BME280;48550;40.588;49.684;2022-12-10T12:15:33;102702.78;;;9.99;100.00
60371;BME280;48550;40.588;49.684;2022-12-10T12:18:23;102697.31;;;9.92;100.00
60371;BME280;48550;40.588;49.684;2022-12-10T12:21:01;102701.91;;;9.83;100.00
60371;BME280;48550;40.588;49.684;2022-12-10T12:23:46;102704.94;;;9.80;100.00
60371;BME280;48550;40.588;49.684;2022-12-10T12:26:20;102702.91;;;9.82;100.00
60371;BME280;48550;40.588;49.684;2022-12-10T12:31:59;102710.72;;;9.92;100.00
60371;BME280;48550;40.588;49.684;2022-12-10T12:37:17;102711.19;;;9.96;100.00
60371;BME280;48550;40.588;49.684;2022-12-10T12:47:21;102713.09;;;10.10;100.00
60371;BME280;48550;40.588;49.684;2022-12-10T12:49:48;102709.13;;;9.83;100.00
60371;BME280;48550;40.588;49.684;2022-12-10T12:52:48;102715.38;;;9.75;100.00
60371;BME280;48550;40.588;49.684;2022-12-10T12:56:05;102710.91;;;9.91;100.00
60371;BME280;48550;40.588;49.684;2022-12-10T13:00:49;102712.22;;;9.95;100.00
60371;BME280;48550;40.588;49.684;2022-12-10T13:03:29;102717.41;;;9.73;100.00
60371;BME280;48550;40.588;49.684;2022-12-10T13:06:22;102710.13;;;9.51;100.00
60371;BME280;48550;40.588;49.684;2022-12-10T13:11:34;102721.47;;;9.61;100.00
60371;BME280;48550;40.588;49.684;2022-12-10T13:22:39;102726.44;;;9.41;100.00
60371;BME280;48550;40.588;49.684;2022-12-10T13:25:14;102724.50;;;9.27;100.00
60371;BME280;48550;40.588;49.684;2022-12-10T13:27:41;102709.34;;;9.11;100.00
60371;BME280;48550;40.588;49.684;2022-12-10T13:42:44;102736.19;;;8.95;100.00
60371;BME280;48550;40.588;49.684;2022-12-10T13:45:32;102736.03;;;8.97;100.00
60371;BME280;48550;40.588;49.684;2022-12-10T13:48:17;102736.16;;;9.03;100.00
60371;BME280;48550;40.588;49.684;2022-12-10T14:01:29;102737.03;;;8.87;100.00
60371;BME280;48550;40.588;49.684;2022-12-10T14:04:29;102742.22;;;8.97;100.00
60371;BME280;48550;40.588;49.684;2022-12-10T14:06:58;102752.63;;;8.92;100.00
60371;BME280;48550;40.588;49.684;2022-12-10T14:09:28;102744.22;;;8.87;100.00
60371;BME280;48550;40.588;49.684;2022-12-10T14:11:58;102750.25;;;8.89;100.00
60371;BME280;48550;40.588;49.684;2022-12-10T14:14:32;102754.63;;;8.82;100.00
60371;BME280;48550;40.588;49.684;2022-12-10T14:17:12;102753.78;;;8.81;100.00
60371;BME280;48550;40.588;49.684;2022-12-10T14:19:42;102751.94;;;8.82;100.00
60371;BME280;48550;40.588;49.684;2022-12-10T14:22:15;102755.28;;;8.84;100.00
60371;BME280;48550;40.588;49.684;2022-12-10T14:24:42;102764.16;;;8.84;100.00
60371;BME280;48550;40.588;49.684;2022-12-10T14:27:14;102749.25;;;8.82;100.00
60371;BME280;48550;40.588;49.684;2022-12-10T14:29:48;102762.16;;;8.86;100.00
60371;BME280;48550;40.588;49.684;2022-12-10T14:32:34;102759.81;;;8.83;100.00
60371;BME280;48550;40.588;49.684;2022-12-10T14:35:03;102772.34;;;8.83;100.00
60371;BME280;48550;40.588;49.684;2022-12-10T14:37:31;102769.19;;;8.79;100.00
60371;BME280;48550;40.588;49.684;2022-12-10T14:39:59;102766.16;;;8.82;100.00